sensor_id;sensor_type;location;lat;lon;timestamp;temperature;humidity
12849;DHT22;6493;50.928;7.172;2022-07-23T00:02:23;16.00;56.40
12849;DHT22;6493;50.928;7.172;2022-07-23T00:07:27;16.00;56.40
12849;DHT22;6493;50.928;7.172;2022-07-23T00:12:32;16.00;56.40
12849;DHT22;6493;50.928;7.172;2022-07-23T00:17:36;15.90;56.40
12849;DHT22;6493;50.928;7.172;2022-07-23T00:22:46;15.90;56.50
12849;DHT22;6493;50.928;7.172;2022-07-23T00:27:51;15.90;57.10
12849;DHT22;6493;50.928;7.172;2022-07-23T00:32:55;15.90;56.50
12849;DHT22;6493;50.928;7.172;2022-07-23T00:38:01;15.90;56.60
12849;DHT22;6493;50.928;7.172;2022-07-23T00:43:07;16.00;56.70
12849;DHT22;6493;50.928;7.172;2022-07-23T00:48:11;16.00;56.70
12849;DHT22;6493;50.928;7.172;2022-07-23T00:53:15;16.00;56.70
12849;DHT22;6493;50.928;7.172;2022-07-23T00:58:20;16.00;56.70
12849;DHT22;6493;50.928;7.172;2022-07-23T01:03:26;16.00;57.30
12849;DHT22;6493;50.928;7.172;2022-07-23T01:08:30;16.00;56.80
12849;DHT22;6493;50.928;7.172;2022-07-23T01:13:35;16.00;56.80
12849;DHT22;6493;50.928;7.172;2022-07-23T01:18:38;16.00;56.80
12849;DHT22;6493;50.928;7.172;2022-07-23T01:23:43;16.00;56.80
12849;DHT22;6493;50.928;7.172;2022-07-23T01:28:47;16.00;56.80
12849;DHT22;6493;50.928;7.172;2022-07-23T01:33:51;16.00;56.80
12849;DHT22;6493;50.928;7.172;2022-07-23T01:38:56;16.00;56.80
12849;DHT22;6493;50.928;7.172;2022-07-23T01:44:01;16.00;56.90
12849;DHT22;6493;50.928;7.172;2022-07-23T01:49:05;15.90;56.80
12849;DHT22;6493;50.928;7.172;2022-07-23T01:54:30;15.90;56.80
12849;DHT22;6493;50.928;7.172;2022-07-23T01:59:35;15.80;56.80
12849;DHT22;6493;50.928;7.172;2022-07-23T02:04:40;15.80;56.90
12849;DHT22;6493;50.928;7.172;2022-07-23T02:09:45;15.80;56.90
12849;DHT22;6493;50.928;7.172;2022-07-23T02:14:48;15.70;57.00
12849;DHT22;6493;50.928;7.172;2022-07-23T02:19:52;15.70;57.10
12849;DHT22;6493;50.928;7.172;2022-07-23T02:24:58;15.60;57.10
12849;DHT22;6493;50.928;7.172;2022-07-23T02:30:02;15.60;57.30
12849;DHT22;6493;50.928;7.172;2022-07-23T02:35:08;15.60;57.40
12849;DHT22;6493;50.928;7.172;2022-07-23T02:40:14;15.50;57.40
12849;DHT22;6493;50.928;7.172;2022-07-23T02:45:18;15.50;57.60
12849;DHT22;6493;50.928;7.172;2022-07-23T02:50:22;15.40;57.60
12849;DHT22;6493;50.928;7.172;2022-07-23T02:55:30;15.40;57.60
12849;DHT22;6493;50.928;7.172;2022-07-23T03:00:36;15.30;57.70
12849;DHT22;6493;50.928;7.172;2022-07-23T03:05:40;15.30;57.70
12849;DHT22;6493;50.928;7.172;2022-07-23T03:10:45;15.30;57.90
12849;DHT22;6493;50.928;7.172;2022-07-23T03:15:49;15.20;57.90
12849;DHT22;6493;50.928;7.172;2022-07-23T03:20:53;15.20;57.90
12849;DHT22;6493;50.928;7.172;2022-07-23T03:25:58;15.10;57.90
12849;DHT22;6493;50.928;7.172;2022-07-23T03:31:02;15.10;58.10
12849;DHT22;6493;50.928;7.172;2022-07-23T03:36:07;15.00;58.10
12849;DHT22;6493;50.928;7.172;2022-07-23T03:41:16;15.00;58.20
12849;DHT22;6493;50.928;7.172;2022-07-23T03:46:20;14.90;58.30
12849;DHT22;6493;50.928;7.172;2022-07-23T03:51:24;14.90;58.90
12849;DHT22;6493;50.928;7.172;2022-07-23T03:56:29;14.80;58.40
12849;DHT22;6493;50.928;7.172;2022-07-23T04:01:32;14.80;58.40
12849;DHT22;6493;50.928;7.172;2022-07-23T04:06:36;14.70;58.30
12849;DHT22;6493;50.928;7.172;2022-07-23T04:11:41;14.70;58.30
12849;DHT22;6493;50.928;7.172;2022-07-23T04:16:45;14.60;58.30
12849;DHT22;6493;50.928;7.172;2022-07-23T04:21:49;14.60;58.30
12849;DHT22;6493;50.928;7.172;2022-07-23T04:26:54;14.60;58.70
12849;DHT22;6493;50.928;7.172;2022-07-23T04:31:58;14.70;59.20
12849;DHT22;6493;50.928;7.172;2022-07-23T04:37:02;14.80;59.40
12849;DHT22;6493;50.928;7.172;2022-07-23T04:42:08;15.10;59.70
12849;DHT22;6493;50.928;7.172;2022-07-23T04:47:12;15.40;60.50
12849;DHT22;6493;50.928;7.172;2022-07-23T04:52:19;15.80;61.20
12849;DHT22;6493;50.928;7.172;2022-07-23T04:57:24;16.30;61.70
12849;DHT22;6493;50.928;7.172;2022-07-23T05:02:27;16.80;62.00
12849;DHT22;6493;50.928;7.172;2022-07-23T05:07:31;17.30;61.70
12849;DHT22;6493;50.928;7.172;2022-07-23T05:12:36;17.80;61.70
12849;DHT22;6493;50.928;7.172;2022-07-23T05:17:40;18.30;61.70
12849;DHT22;6493;50.928;7.172;2022-07-23T05:22:48;18.70;62.00
12849;DHT22;6493;50.928;7.172;2022-07-23T05:27:54;19.20;62.40
12849;DHT22;6493;50.928;7.172;2022-07-23T05:32:58;19.70;61.70
12849;DHT22;6493;50.928;7.172;2022-07-23T05:38:02;20.30;61.60
12849;DHT22;6493;50.928;7.172;2022-07-23T05:43:08;20.70;60.90
12849;DHT22;6493;50.928;7.172;2022-07-23T05:48:11;21.00;60.00
12849;DHT22;6493;50.928;7.172;2022-07-23T05:53:36;21.20;59.70
12849;DHT22;6493;50.928;7.172;2022-07-23T05:58:55;21.40;58.70
12849;DHT22;6493;50.928;7.172;2022-07-23T06:03:58;21.20;57.50
12849;DHT22;6493;50.928;7.172;2022-07-23T06:09:08;21.00;56.80
12849;DHT22;6493;50.928;7.172;2022-07-23T06:14:14;20.80;57.30
12849;DHT22;6493;50.928;7.172;2022-07-23T06:19:29;20.80;58.00
12849;DHT22;6493;50.928;7.172;2022-07-23T06:24:32;21.10;58.80
12849;DHT22;6493;50.928;7.172;2022-07-23T06:29:37;21.50;59.10
12849;DHT22;6493;50.928;7.172;2022-07-23T06:34:42;22.00;58.70
12849;DHT22;6493;50.928;7.172;2022-07-23T06:39:50;22.50;58.30
12849;DHT22;6493;50.928;7.172;2022-07-23T06:44:55;22.90;58.00
12849;DHT22;6493;50.928;7.172;2022-07-23T06:49:59;23.30;57.50
12849;DHT22;6493;50.928;7.172;2022-07-23T06:55:04;23.60;57.00
12849;DHT22;6493;50.928;7.172;2022-07-23T07:00:10;23.90;56.30
12849;DHT22;6493;50.928;7.172;2022-07-23T07:05:14;24.10;55.80
12849;DHT22;6493;50.928;7.172;2022-07-23T07:10:18;24.20;55.50
12849;DHT22;6493;50.928;7.172;2022-07-23T07:15:23;24.30;55.10
12849;DHT22;6493;50.928;7.172;2022-07-23T07:20:27;24.40;54.50
12849;DHT22;6493;50.928;7.172;2022-07-23T07:25:30;24.40;54.20
12849;DHT22;6493;50.928;7.172;2022-07-23T07:30:35;24.40;53.80
12849;DHT22;6493;50.928;7.172;2022-07-23T07:35:39;24.30;53.40
12849;DHT22;6493;50.928;7.172;2022-07-23T07:40:42;24.20;53.30
12849;DHT22;6493;50.928;7.172;2022-07-23T07:45:47;24.00;53.00
12849;DHT22;6493;50.928;7.172;2022-07-23T07:50:51;23.80;52.50
12849;DHT22;6493;50.928;7.172;2022-07-23T07:55:55;23.60;52.60
12849;DHT22;6493;50.928;7.172;2022-07-23T08:01:00;23.30;52.40
12849;DHT22;6493;50.928;7.172;2022-07-23T08:06:05;23.00;52.50
12849;DHT22;6493;50.928;7.172;2022-07-23T08:11:09;22.70;52.50
12849;DHT22;6493;50.928;7.172;2022-07-23T08:16:14;22.60;52.40
12849;DHT22;6493;50.928;7.172;2022-07-23T08:21:18;22.30;52.10
12849;DHT22;6493;50.928;7.172;2022-07-23T08:26:22;22.10;52.30
12849;DHT22;6493;50.928;7.172;2022-07-23T08:31:27;22.00;52.60
12849;DHT22;6493;50.928;7.172;2022-07-23T08:36:31;22.00;52.80
12849;DHT22;6493;50.928;7.172;2022-07-23T08:41:35;22.00;52.90
12849;DHT22;6493;50.928;7.172;2022-07-23T08:46:40;22.10;53.00
12849;DHT22;6493;50.928;7.172;2022-07-23T08:51:45;22.20;52.80
12849;DHT22;6493;50.928;7.172;2022-07-23T08:56:49;22.30;52.90
12849;DHT22;6493;50.928;7.172;2022-07-23T09:01:54;22.30;52.40
12849;DHT22;6493;50.928;7.172;2022-07-23T09:06:59;22.30;52.10
12849;DHT22;6493;50.928;7.172;2022-07-23T09:12:06;22.30;52.20
12849;DHT22;6493;50.928;7.172;2022-07-23T09:17:14;22.30;52.40
12849;DHT22;6493;50.928;7.172;2022-07-23T09:22:20;22.40;52.00
12849;DHT22;6493;50.928;7.172;2022-07-23T09:27:46;22.50;52.20
12849;DHT22;6493;50.928;7.172;2022-07-23T09:33:08;22.70;51.00
12849;DHT22;6493;50.928;7.172;2022-07-23T09:38:12;22.80;51.10
12849;DHT22;6493;50.928;7.172;2022-07-23T09:43:26;22.80;51.70
12849;DHT22;6493;50.928;7.172;2022-07-23T09:48:38;22.90;51.90
12849;DHT22;6493;50.928;7.172;2022-07-23T09:53:41;23.00;51.80
12849;DHT22;6493;50.928;7.172;2022-07-23T09:58:46;23.10;52.30
12849;DHT22;6493;50.928;7.172;2022-07-23T10:03:54;23.20;51.30
12849;DHT22;6493;50.928;7.172;2022-07-23T10:09:24;23.30;51.20
12849;DHT22;6493;50.928;7.172;2022-07-23T10:14:50;23.50;51.70
12849;DHT22;6493;50.928;7.172;2022-07-23T10:19:56;23.60;51.10
12849;DHT22;6493;50.928;7.172;2022-07-23T10:25:08;23.60;49.90
12849;DHT22;6493;50.928;7.172;2022-07-23T10:30:19;23.60;50.30
12849;DHT22;6493;50.928;7.172;2022-07-23T10:35:31;23.70;50.80
12849;DHT22;6493;50.928;7.172;2022-07-23T10:40:37;23.70;50.10
12849;DHT22;6493;50.928;7.172;2022-07-23T10:45:41;23.80;50.40
12849;DHT22;6493;50.928;7.172;2022-07-23T10:51:07;24.00;50.30
12849;DHT22;6493;50.928;7.172;2022-07-23T10:56:14;24.20;49.20
12849;DHT22;6493;50.928;7.172;2022-07-23T11:01:34;24.30;49.70
12849;DHT22;6493;50.928;7.172;2022-07-23T11:07:08;24.40;47.70
12849;DHT22;6493;50.928;7.172;2022-07-23T11:12:33;24.40;48.30
12849;DHT22;6493;50.928;7.172;2022-07-23T11:17:57;24.40;47.70
12849;DHT22;6493;50.928;7.172;2022-07-23T11:23:04;24.40;48.80
12849;DHT22;6493;50.928;7.172;2022-07-23T11:28:13;24.60;48.60
12849;DHT22;6493;50.928;7.172;2022-07-23T11:33:20;24.60;48.40
12849;DHT22;6493;50.928;7.172;2022-07-23T11:38:25;24.80;48.60
12849;DHT22;6493;50.928;7.172;2022-07-23T11:43:29;24.90;48.10
12849;DHT22;6493;50.928;7.172;2022-07-23T11:48:32;25.00;48.00
12849;DHT22;6493;50.928;7.172;2022-07-23T11:53:45;25.00;47.60
12849;DHT22;6493;50.928;7.172;2022-07-23T11:58:54;25.10;47.20
12849;DHT22;6493;50.928;7.172;2022-07-23T12:04:01;25.10;46.50
12849;DHT22;6493;50.928;7.172;2022-07-23T12:09:10;25.10;46.70
12849;DHT22;6493;50.928;7.172;2022-07-23T12:14:14;25.00;46.30
12849;DHT22;6493;50.928;7.172;2022-07-23T12:19:21;25.00;46.30
12849;DHT22;6493;50.928;7.172;2022-07-23T12:24:26;25.00;46.30
12849;DHT22;6493;50.928;7.172;2022-07-23T12:29:34;25.00;46.20
12849;DHT22;6493;50.928;7.172;2022-07-23T12:34:38;25.10;46.20
12849;DHT22;6493;50.928;7.172;2022-07-23T12:39:43;25.10;46.20
12849;DHT22;6493;50.928;7.172;2022-07-23T12:45:07;25.20;46.00
12849;DHT22;6493;50.928;7.172;2022-07-23T12:50:42;25.20;45.30
12849;DHT22;6493;50.928;7.172;2022-07-23T12:55:48;25.30;45.20
12849;DHT22;6493;50.928;7.172;2022-07-23T13:01:28;25.40;45.70
12849;DHT22;6493;50.928;7.172;2022-07-23T13:06:34;25.30;43.90
12849;DHT22;6493;50.928;7.172;2022-07-23T13:11:39;25.20;44.70
12849;DHT22;6493;50.928;7.172;2022-07-23T13:16:45;25.10;45.10
12849;DHT22;6493;50.928;7.172;2022-07-23T13:21:49;25.20;45.50
12849;DHT22;6493;50.928;7.172;2022-07-23T13:26:54;25.30;45.50
12849;DHT22;6493;50.928;7.172;2022-07-23T13:32:00;25.30;45.00
12849;DHT22;6493;50.928;7.172;2022-07-23T13:37:12;25.40;45.00
12849;DHT22;6493;50.928;7.172;2022-07-23T13:42:17;25.50;44.90
12849;DHT22;6493;50.928;7.172;2022-07-23T13:47:24;25.50;44.50
12849;DHT22;6493;50.928;7.172;2022-07-23T13:52:27;25.50;44.50
12849;DHT22;6493;50.928;7.172;2022-07-23T13:57:32;25.50;44.30
12849;DHT22;6493;50.928;7.172;2022-07-23T14:02:37;25.50;44.10
12849;DHT22;6493;50.928;7.172;2022-07-23T14:07:42;25.50;44.10
12849;DHT22;6493;50.928;7.172;2022-07-23T14:12:49;25.60;43.90
12849;DHT22;6493;50.928;7.172;2022-07-23T14:17:55;25.60;43.80
12849;DHT22;6493;50.928;7.172;2022-07-23T14:22:59;25.50;43.60
12849;DHT22;6493;50.928;7.172;2022-07-23T14:28:08;25.50;43.60
12849;DHT22;6493;50.928;7.172;2022-07-23T14:33:14;25.40;43.40
12849;DHT22;6493;50.928;7.172;2022-07-23T14:38:19;25.40;43.40
12849;DHT22;6493;50.928;7.172;2022-07-23T14:43:24;25.40;43.60
12849;DHT22;6493;50.928;7.172;2022-07-23T14:48:27;25.40;43.60
12849;DHT22;6493;50.928;7.172;2022-07-23T14:53:31;25.40;43.30
12849;DHT22;6493;50.928;7.172;2022-07-23T14:58:38;25.40;43.10
12849;DHT22;6493;50.928;7.172;2022-07-23T15:03:41;25.30;42.80
12849;DHT22;6493;50.928;7.172;2022-07-23T15:08:45;25.20;43.00
12849;DHT22;6493;50.928;7.172;2022-07-23T15:13:50;25.20;43.00
12849;DHT22;6493;50.928;7.172;2022-07-23T15:18:54;25.20;43.10
12849;DHT22;6493;50.928;7.172;2022-07-23T15:23:59;25.20;43.10
12849;DHT22;6493;50.928;7.172;2022-07-23T15:29:04;25.10;42.80
12849;DHT22;6493;50.928;7.172;2022-07-23T15:34:09;25.00;42.70
12849;DHT22;6493;50.928;7.172;2022-07-23T15:39:13;25.00;42.70
12849;DHT22;6493;50.928;7.172;2022-07-23T15:44:19;24.90;42.60
12849;DHT22;6493;50.928;7.172;2022-07-23T15:49:31;24.80;42.60
12849;DHT22;6493;50.928;7.172;2022-07-23T15:54:40;24.80;42.50
12849;DHT22;6493;50.928;7.172;2022-07-23T15:59:46;24.70;42.60
12849;DHT22;6493;50.928;7.172;2022-07-23T16:04:49;24.60;42.50
12849;DHT22;6493;50.928;7.172;2022-07-23T16:09:54;24.50;42.40
12849;DHT22;6493;50.928;7.172;2022-07-23T16:14:59;24.40;42.40
12849;DHT22;6493;50.928;7.172;2022-07-23T16:20:09;24.30;42.50
12849;DHT22;6493;50.928;7.172;2022-07-23T16:25:13;24.30;42.60
12849;DHT22;6493;50.928;7.172;2022-07-23T16:30:18;24.30;42.60
12849;DHT22;6493;50.928;7.172;2022-07-23T16:35:22;24.20;42.40
12849;DHT22;6493;50.928;7.172;2022-07-23T16:40:26;24.10;42.40
12849;DHT22;6493;50.928;7.172;2022-07-23T16:45:32;24.00;42.30
12849;DHT22;6493;50.928;7.172;2022-07-23T16:50:35;24.00;42.30
12849;DHT22;6493;50.928;7.172;2022-07-23T16:55:39;23.90;42.50
12849;DHT22;6493;50.928;7.172;2022-07-23T17:00:44;23.80;42.40
12849;DHT22;6493;50.928;7.172;2022-07-23T17:05:48;23.80;42.30
12849;DHT22;6493;50.928;7.172;2022-07-23T17:10:51;23.70;42.40
12849;DHT22;6493;50.928;7.172;2022-07-23T17:15:57;23.60;42.40
12849;DHT22;6493;50.928;7.172;2022-07-23T17:21:00;23.50;42.30
12849;DHT22;6493;50.928;7.172;2022-07-23T17:26:08;23.50;42.50
12849;DHT22;6493;50.928;7.172;2022-07-23T17:31:13;23.40;42.50
12849;DHT22;6493;50.928;7.172;2022-07-23T17:36:16;23.40;42.50
12849;DHT22;6493;50.928;7.172;2022-07-23T17:41:20;23.30;42.50
12849;DHT22;6493;50.928;7.172;2022-07-23T17:46:25;23.20;42.40
12849;DHT22;6493;50.928;7.172;2022-07-23T17:51:29;23.10;42.40
12849;DHT22;6493;50.928;7.172;2022-07-23T17:56:34;23.00;42.40
12849;DHT22;6493;50.928;7.172;2022-07-23T18:01:40;22.90;42.40
12849;DHT22;6493;50.928;7.172;2022-07-23T18:06:44;22.80;42.30
12849;DHT22;6493;50.928;7.172;2022-07-23T18:11:48;22.70;42.40
12849;DHT22;6493;50.928;7.172;2022-07-23T18:16:53;22.60;42.50
12849;DHT22;6493;50.928;7.172;2022-07-23T18:21:57;22.60;42.60
12849;DHT22;6493;50.928;7.172;2022-07-23T18:27:01;22.50;42.60
12849;DHT22;6493;50.928;7.172;2022-07-23T18:32:06;22.50;42.70
12849;DHT22;6493;50.928;7.172;2022-07-23T18:37:10;22.40;42.70
12849;DHT22;6493;50.928;7.172;2022-07-23T18:42:37;22.30;42.80
12849;DHT22;6493;50.928;7.172;2022-07-23T18:47:42;22.20;42.80
12849;DHT22;6493;50.928;7.172;2022-07-23T18:52:46;22.10;42.80
12849;DHT22;6493;50.928;7.172;2022-07-23T18:57:49;22.00;42.90
12849;DHT22;6493;50.928;7.172;2022-07-23T19:02:54;21.90;43.00
12849;DHT22;6493;50.928;7.172;2022-07-23T19:07:58;21.90;43.00
12849;DHT22;6493;50.928;7.172;2022-07-23T19:13:02;21.80;43.10
12849;DHT22;6493;50.928;7.172;2022-07-23T19:18:10;21.70;43.20
12849;DHT22;6493;50.928;7.172;2022-07-23T19:23:13;21.60;43.20
12849;DHT22;6493;50.928;7.172;2022-07-23T19:28:20;21.50;43.30
12849;DHT22;6493;50.928;7.172;2022-07-23T19:33:25;21.30;43.20
12849;DHT22;6493;50.928;7.172;2022-07-23T19:38:29;21.20;43.30
12849;DHT22;6493;50.928;7.172;2022-07-23T19:43:32;21.10;43.30
12849;DHT22;6493;50.928;7.172;2022-07-23T19:48:37;21.00;43.30
12849;DHT22;6493;50.928;7.172;2022-07-23T19:53:41;20.90;43.40
12849;DHT22;6493;50.928;7.172;2022-07-23T19:58:45;20.80;43.50
12849;DHT22;6493;50.928;7.172;2022-07-23T20:03:51;20.70;43.60
12849;DHT22;6493;50.928;7.172;2022-07-23T20:08:55;20.60;43.70
12849;DHT22;6493;50.928;7.172;2022-07-23T20:13:59;20.50;44.20
12849;DHT22;6493;50.928;7.172;2022-07-23T20:19:04;20.40;43.90
12849;DHT22;6493;50.928;7.172;2022-07-23T20:24:08;20.30;44.10
12849;DHT22;6493;50.928;7.172;2022-07-23T20:29:13;20.20;44.20
12849;DHT22;6493;50.928;7.172;2022-07-23T20:34:20;20.10;44.30
12849;DHT22;6493;50.928;7.172;2022-07-23T20:39:23;19.90;44.40
12849;DHT22;6493;50.928;7.172;2022-07-23T20:44:27;19.80;44.50
12849;DHT22;6493;50.928;7.172;2022-07-23T20:49:32;19.60;44.70
12849;DHT22;6493;50.928;7.172;2022-07-23T20:54:36;19.50;44.70
12849;DHT22;6493;50.928;7.172;2022-07-23T20:59:40;19.40;44.80
12849;DHT22;6493;50.928;7.172;2022-07-23T21:04:48;19.30;45.00
12849;DHT22;6493;50.928;7.172;2022-07-23T21:09:52;19.20;45.10
12849;DHT22;6493;50.928;7.172;2022-07-23T21:14:55;19.10;45.20
12849;DHT22;6493;50.928;7.172;2022-07-23T21:20:00;19.00;45.30
12849;DHT22;6493;50.928;7.172;2022-07-23T21:25:05;19.00;45.50
12849;DHT22;6493;50.928;7.172;2022-07-23T21:30:13;18.90;45.50
12849;DHT22;6493;50.928;7.172;2022-07-23T21:35:18;18.80;45.60
12849;DHT22;6493;50.928;7.172;2022-07-23T21:40:22;18.70;45.70
12849;DHT22;6493;50.928;7.172;2022-07-23T21:45:25;18.70;45.90
12849;DHT22;6493;50.928;7.172;2022-07-23T21:50:30;18.50;45.80
12849;DHT22;6493;50.928;7.172;2022-07-23T21:55:34;18.50;46.00
12849;DHT22;6493;50.928;7.172;2022-07-23T22:00:38;18.40;46.00
12849;DHT22;6493;50.928;7.172;2022-07-23T22:05:44;18.30;46.10
12849;DHT22;6493;50.928;7.172;2022-07-23T22:10:47;18.20;46.20
12849;DHT22;6493;50.928;7.172;2022-07-23T22:15:51;18.20;46.30
12849;DHT22;6493;50.928;7.172;2022-07-23T22:20:56;18.10;46.40
12849;DHT22;6493;50.928;7.172;2022-07-23T22:26:00;18.00;46.50
12849;DHT22;6493;50.928;7.172;2022-07-23T22:31:06;18.00;46.60
12849;DHT22;6493;50.928;7.172;2022-07-23T22:36:12;17.90;46.60
12849;DHT22;6493;50.928;7.172;2022-07-23T22:41:16;17.90;46.80
12849;DHT22;6493;50.928;7.172;2022-07-23T22:46:20;17.80;46.70
12849;DHT22;6493;50.928;7.172;2022-07-23T22:51:25;17.70;46.70
12849;DHT22;6493;50.928;7.172;2022-07-23T22:56:31;17.60;46.90
12849;DHT22;6493;50.928;7.172;2022-07-23T23:01:36;17.50;46.90
12849;DHT22;6493;50.928;7.172;2022-07-23T23:06:41;17.40;47.00
12849;DHT22;6493;50.928;7.172;2022-07-23T23:11:44;17.40;47.30
12849;DHT22;6493;50.928;7.172;2022-07-23T23:16:48;17.30;47.20
12849;DHT22;6493;50.928;7.172;2022-07-23T23:21:53;17.20;47.40
12849;DHT22;6493;50.928;7.172;2022-07-23T23:26:57;17.00;47.30
12849;DHT22;6493;50.928;7.172;2022-07-23T23:32:00;16.90;47.40
12849;DHT22;6493;50.928;7.172;2022-07-23T23:37:05;16.80;47.50
12849;DHT22;6493;50.928;7.172;2022-07-23T23:42:09;16.80;47.70
12849;DHT22;6493;50.928;7.172;2022-07-23T23:47:13;16.70;47.80
12849;DHT22;6493;50.928;7.172;2022-07-23T23:52:18;16.60;48.00
12849;DHT22;6493;50.928;7.172;2022-07-23T23:57:22;16.40;48.10
